createdAt,value
2023-04-13T00:03:27.739Z,13.53
2023-04-13T00:07:28.594Z,13.75
2023-04-13T00:11:32.286Z,13.62
2023-04-13T00:15:38.356Z,13.49
2023-04-13T00:19:41.581Z,13.41
2023-04-13T00:23:41.912Z,13.71
2023-04-13T00:27:42.779Z,13.58
2023-04-13T00:31:45.910Z,13.65
2023-04-13T00:35:46.546Z,13.72
2023-04-13T00:39:47.086Z,13.77
2023-04-13T00:43:47.843Z,13.79
2023-04-13T00:47:54.358Z,13.78
2023-04-13T00:51:54.981Z,13.57
2023-04-13T00:55:55.930Z,13.42
2023-04-13T00:59:57.028Z,13.46
2023-04-13T01:04:00.277Z,13.35
2023-04-13T01:08:19.310Z,13.22
2023-04-13T01:12:29.534Z,13.14
2023-04-13T01:16:37.722Z,13.26
2023-04-13T01:20:44.794Z,12.93
2023-04-13T01:25:06.064Z,12.96
2023-04-13T01:29:10.842Z,12.92
2023-04-13T01:33:14.248Z,12.94
2023-04-13T01:37:17.604Z,13.14
2023-04-13T01:41:20.073Z,12.75
2023-04-13T01:45:28.500Z,12.87
2023-04-13T01:49:33.985Z,12.82
2023-04-13T01:54:04.944Z,12.69
2023-04-13T01:58:06.363Z,12.48
2023-04-13T02:02:10.269Z,12.54
2023-04-13T02:06:11.725Z,12.47
2023-04-13T02:10:16.574Z,12.06
2023-04-13T02:14:19.000Z,12.71
2023-04-13T02:18:24.128Z,12.73
2023-04-13T02:22:25.249Z,12.63
2023-04-13T02:26:26.437Z,12.39
2023-04-13T02:30:28.411Z,12.63
2023-04-13T02:34:34.110Z,12.57
2023-04-13T02:38:37.525Z,12.77
2023-04-13T02:42:50.211Z,12.87
2023-04-13T02:46:51.821Z,12.60
2023-04-13T02:50:55.064Z,12.65
2023-04-13T02:54:58.944Z,12.39
2023-04-13T02:59:04.619Z,12.15
2023-04-13T03:03:07.040Z,12.47
2023-04-13T03:07:17.432Z,12.23
2023-04-13T03:11:26.378Z,12.21
2023-04-13T03:15:40.971Z,12.21
2023-04-13T03:19:43.156Z,12.05
2023-04-13T03:23:47.482Z,11.95
2023-04-13T03:27:50.417Z,12.09
2023-04-13T03:31:52.970Z,12.14
2023-04-13T03:35:53.568Z,12.21
2023-04-13T03:40:05.029Z,12.06
2023-04-13T03:44:13.948Z,11.85
2023-04-13T03:48:15.923Z,11.97
2023-04-13T03:52:17.122Z,11.86
2023-04-13T03:56:27.991Z,11.96
2023-04-13T04:00:29.411Z,12.05
2023-04-13T04:04:44.372Z,12.15
2023-04-13T04:08:45.745Z,11.92
2023-04-13T04:13:01.634Z,11.85
2023-04-13T04:17:05.490Z,11.95
2023-04-13T04:21:07.778Z,11.63
2023-04-13T04:25:10.397Z,11.75
2023-04-13T04:29:16.057Z,11.82
2023-04-13T04:33:17.800Z,11.86
2023-04-13T04:37:21.790Z,11.84
2023-04-13T04:41:48.898Z,12.07
2023-04-13T04:45:57.907Z,12.00
2023-04-13T04:49:59.692Z,12.11
2023-04-13T04:54:04.017Z,11.92
2023-04-13T04:58:06.914Z,12.44
2023-04-13T05:02:11.422Z,12.47
2023-04-13T05:06:12.641Z,12.51
2023-04-13T05:10:13.981Z,12.57
2023-04-13T05:14:20.996Z,12.76
2023-04-13T05:18:25.927Z,12.31
2023-04-13T05:22:28.809Z,12.73
2023-04-13T05:26:35.467Z,12.82
2023-04-13T05:30:36.160Z,12.84
2023-04-13T05:34:41.263Z,12.54
2023-04-13T05:38:50.190Z,12.79
2023-04-13T05:42:56.600Z,12.63
2023-04-13T05:47:02.484Z,12.71
2023-04-13T05:51:10.015Z,12.49
2023-04-13T05:55:12.128Z,12.27
2023-04-13T05:59:15.747Z,12.49
2023-04-13T06:03:20.776Z,12.34
2023-04-13T06:07:26.373Z,12.34
2023-04-13T06:11:29.598Z,12.72
2023-04-13T06:15:33.730Z,12.60
2023-04-13T06:19:34.930Z,12.12
2023-04-13T06:23:39.219Z,12.61
2023-04-13T06:27:50.926Z,12.46
2023-04-13T06:31:53.438Z,12.70
2023-04-13T06:35:55.178Z,13.14
2023-04-13T06:40:06.058Z,13.23
2023-04-13T06:44:07.545Z,13.35
2023-04-13T06:48:13.069Z,13.30
2023-04-13T06:52:15.068Z,13.56
2023-04-13T06:56:18.394Z,13.44
2023-04-13T07:00:29.497Z,13.10
2023-04-13T07:04:33.957Z,13.73
2023-04-13T07:08:38.230Z,14.04
2023-04-13T07:12:42.585Z,14.03
2023-04-13T07:16:44.005Z,13.70
2023-04-13T07:20:44.717Z,14.34
2023-04-13T07:24:46.915Z,14.15
2023-04-13T07:28:54.052Z,13.95
2023-04-13T07:32:57.580Z,13.38
2023-04-13T07:36:59.700Z,13.59
2023-04-13T07:41:01.001Z,13.48
2023-04-13T07:45:10.907Z,13.68
2023-04-13T07:49:12.140Z,13.82
2023-04-13T07:53:14.347Z,13.99
2023-04-13T07:57:17.872Z,13.82
2023-04-13T08:01:26.560Z,14.01
2023-04-13T08:05:28.805Z,14.13
2023-04-13T08:09:30.172Z,14.65
2023-04-13T08:13:32.358Z,14.60
2023-04-13T08:17:36.317Z,14.87
2023-04-13T08:21:38.813Z,14.98
2023-04-13T08:25:44.920Z,15.11
2023-04-13T08:29:46.733Z,14.78
2023-04-13T08:33:50.746Z,14.27
2023-04-13T08:37:51.978Z,14.45
2023-04-13T08:41:53.749Z,14.58
2023-04-13T08:45:56.262Z,15.37
2023-04-13T08:50:01.679Z,14.88
2023-04-13T08:54:16.511Z,14.91
2023-04-13T08:58:23.097Z,15.43
2023-04-13T09:02:26.872Z,16.10
2023-04-13T09:06:40.153Z,16.20
2023-04-13T09:10:44.108Z,16.23
2023-04-13T09:14:46.841Z,15.44
2023-04-13T09:18:53.700Z,15.72
2023-04-13T09:22:56.829Z,15.77
2023-04-13T09:26:59.350Z,16.83
2023-04-13T09:31:08.358Z,16.42
2023-04-13T09:35:11.745Z,15.72
2023-04-13T09:39:17.724Z,16.99
2023-04-13T09:43:19.737Z,16.39
2023-04-13T09:47:20.657Z,15.60
2023-04-13T09:51:21.189Z,15.43
2023-04-13T09:55:24.623Z,15.45
2023-04-13T09:59:27.646Z,15.27
2023-04-13T10:03:32.186Z,15.58
2023-04-13T10:07:37.274Z,15.49
2023-04-13T10:11:48.340Z,15.60
2023-04-13T10:16:20.885Z,16.11
2023-04-13T10:20:27.230Z,16.95
2023-04-13T10:24:31.227Z,16.37
2023-04-13T10:28:45.906Z,16.58
2023-04-13T10:32:48.462Z,17.78
2023-04-13T10:36:52.132Z,17.41
2023-04-13T10:40:56.017Z,18.45
2023-04-13T10:45:00.623Z,17.39
2023-04-13T10:49:04.131Z,17.60
2023-04-13T10:53:07.781Z,15.89
2023-04-13T10:57:11.416Z,15.06
2023-04-13T11:01:18.534Z,15.44
2023-04-13T11:05:21.148Z,15.46
2023-04-13T11:09:25.757Z,15.79
2023-04-13T11:13:29.929Z,14.97
2023-04-13T11:17:33.313Z,15.11
2023-04-13T11:21:35.747Z,15.22
2023-04-13T11:25:37.325Z,15.18
2023-04-13T11:29:37.832Z,14.84
2023-04-13T11:33:44.680Z,15.37
2023-04-13T11:37:49.281Z,15.81
2023-04-13T11:41:49.598Z,15.48
2023-04-13T11:45:50.221Z,15.53
2023-04-13T11:49:55.933Z,15.78
2023-04-13T11:53:59.940Z,15.81
2023-04-13T11:58:02.213Z,16.40
2023-04-13T12:02:12.301Z,16.71
2023-04-13T12:06:24.412Z,16.88
2023-04-13T12:10:37.367Z,16.32
2023-04-13T12:14:54.686Z,16.06
2023-04-13T12:19:00.119Z,15.82
2023-04-13T12:31:14.010Z,16.52
2023-04-13T12:35:14.949Z,17.12
2023-04-13T12:39:18.145Z,16.99
2023-04-13T12:43:20.557Z,17.57
2023-04-13T12:47:21.161Z,18.09
2023-04-13T12:51:21.579Z,18.37
2023-04-13T12:55:24.975Z,17.26
2023-04-13T12:59:25.509Z,16.57
2023-04-13T13:03:26.306Z,17.79
2023-04-13T13:07:27.295Z,17.92
2023-04-13T13:11:31.569Z,18.60
2023-04-13T13:15:32.012Z,19.58
2023-04-13T13:19:33.016Z,18.88
2023-04-13T13:23:35.054Z,18.17
2023-04-13T13:28:10.131Z,17.40
2023-04-13T13:32:01.586Z,17.28
2023-04-13T13:36:02.738Z,16.99
2023-04-13T13:40:11.219Z,16.92
2023-04-13T13:44:14.405Z,16.57
2023-04-13T13:48:15.110Z,16.30
2023-04-13T13:52:24.181Z,16.06
2023-04-13T13:56:30.103Z,16.32
2023-04-13T14:00:33.217Z,16.60
2023-04-13T14:04:35.000Z,16.35
2023-04-13T14:08:35.364Z,15.74
2023-04-13T14:12:35.983Z,15.64
2023-04-13T14:16:39.337Z,15.60
2023-04-13T14:20:41.797Z,15.83
2023-04-13T14:24:43.506Z,15.80
2023-04-13T14:28:44.114Z,15.80
2023-04-13T14:32:47.852Z,16.30
2023-04-13T14:36:50.556Z,16.25
2023-04-13T14:40:55.146Z,17.15
2023-04-13T14:44:56.206Z,17.22
2023-04-13T14:49:01.139Z,17.39
2023-04-13T14:53:04.748Z,17.23
2023-04-13T14:57:06.304Z,17.15
2023-04-13T15:01:07.960Z,16.67
2023-04-13T15:05:12.707Z,17.33
2023-04-13T15:09:13.521Z,17.18
2023-04-13T15:13:14.074Z,16.43
2023-04-13T15:17:14.376Z,16.54
2023-04-13T15:21:17.650Z,16.22
2023-04-13T15:25:18.258Z,16.04
2023-04-13T15:29:19.082Z,15.56
2023-04-13T15:33:19.799Z,15.68
2023-04-13T15:37:23.822Z,15.88
2023-04-13T15:41:25.628Z,15.75
2023-04-13T15:45:27.628Z,16.23
2023-04-13T15:49:29.759Z,16.35
2023-04-13T15:53:34.579Z,17.09
2023-04-13T15:57:35.778Z,17.21
2023-04-13T16:01:48.765Z,17.53
2023-04-13T16:05:52.342Z,17.67
2023-04-13T16:09:59.057Z,17.12
2023-04-13T16:14:07.618Z,17.23
2023-04-13T16:18:08.510Z,16.71
2023-04-13T16:22:11.052Z,16.57
2023-04-13T16:26:14.478Z,16.49
2023-04-13T16:30:18.231Z,16.43
2023-04-13T16:34:26.475Z,16.66
2023-04-13T16:38:29.353Z,16.42
2023-04-13T16:42:33.561Z,16.65
2023-04-13T16:46:34.392Z,16.44
2023-04-13T16:50:35.684Z,16.39
2023-04-13T16:54:37.029Z,16.26
2023-04-13T16:58:40.329Z,16.10
2023-04-13T17:02:44.488Z,16.11
2023-04-13T17:06:47.638Z,16.35
2023-04-13T17:10:51.350Z,16.15
2023-04-13T17:14:54.691Z,16.22
2023-04-13T17:18:55.107Z,15.96
2023-04-13T17:22:57.924Z,15.86
2023-04-13T17:26:58.705Z,16.31
2023-04-13T17:31:02.274Z,16.29
2023-04-13T17:35:03.230Z,15.82
2023-04-13T17:39:05.829Z,15.82
2023-04-13T17:43:08.579Z,15.20
2023-04-13T17:47:11.953Z,15.44
2023-04-13T17:51:14.698Z,15.39
2023-04-13T17:55:18.351Z,15.45
2023-04-13T17:59:20.388Z,15.40
2023-04-13T18:03:24.978Z,15.42
2023-04-13T18:07:27.035Z,15.34
2023-04-13T18:11:28.025Z,15.15
2023-04-13T18:15:30.256Z,15.21
2023-04-13T18:19:34.900Z,15.08
2023-04-13T18:23:35.432Z,15.01
2023-04-13T18:27:44.117Z,14.77
2023-04-13T18:31:46.419Z,14.69
2023-04-13T18:35:50.588Z,14.36
2023-04-13T18:39:57.888Z,14.20
2023-04-13T18:44:01.317Z,14.17
2023-04-13T18:48:09.837Z,14.07
2023-04-13T18:52:13.082Z,14.13
2023-04-13T18:56:14.235Z,14.03
2023-04-13T19:00:17.095Z,13.82
2023-04-13T19:04:18.276Z,13.75
2023-04-13T19:08:21.918Z,13.73
2023-04-13T19:12:25.830Z,13.49
2023-04-13T19:16:26.488Z,13.40
2023-04-13T19:20:29.808Z,13.24
2023-04-13T19:24:33.307Z,13.09
2023-04-13T19:28:33.776Z,13.29
2023-04-13T19:32:34.422Z,13.14
2023-04-13T19:36:38.679Z,12.80
2023-04-13T19:40:42.288Z,12.82
2023-04-13T19:44:44.466Z,12.53
2023-04-13T19:48:45.063Z,12.41
2023-04-13T19:52:50.667Z,12.57
2023-04-13T19:56:53.895Z,12.73
2023-04-13T20:00:55.168Z,12.58
2023-04-13T20:04:56.040Z,12.51
2023-04-13T20:08:57.266Z,12.41
2023-04-13T20:13:00.461Z,12.41
2023-04-13T20:17:01.509Z,12.47
2023-04-13T20:21:04.042Z,12.38
2023-04-13T20:25:06.319Z,12.31
2023-04-13T20:29:11.350Z,12.35
2023-04-13T20:33:11.754Z,12.25
2023-04-13T20:37:14.658Z,12.32
2023-04-13T20:41:18.599Z,12.29
2023-04-13T20:45:23.627Z,12.22
2023-04-13T20:49:25.520Z,12.08
2023-04-13T20:53:27.582Z,11.75
2023-04-13T20:57:28.478Z,11.94
2023-04-13T21:01:33.883Z,12.01
2023-04-13T21:05:34.347Z,12.02
2023-04-13T21:09:35.096Z,12.01
2023-04-13T21:13:37.005Z,12.18
2023-04-13T21:17:40.165Z,12.11
2023-04-13T21:21:41.087Z,12.18
2023-04-13T21:25:44.628Z,12.22
2023-04-13T21:29:45.248Z,12.11
2023-04-13T21:33:49.435Z,12.22
2023-04-13T21:37:50.134Z,12.24
2023-04-13T21:41:50.670Z,12.25
2023-04-13T21:45:52.227Z,12.24
2023-04-13T21:49:57.451Z,12.32
2023-04-13T21:53:58.883Z,12.34
2023-04-13T21:58:01.233Z,12.42
2023-04-13T22:02:02.380Z,12.30
2023-04-13T22:06:08.287Z,12.20
2023-04-13T22:10:11.849Z,12.44
2023-04-13T22:14:12.898Z,12.36
2023-04-13T22:18:14.310Z,12.08
2023-04-13T22:22:17.836Z,12.19
2023-04-13T22:26:18.504Z,12.09
2023-04-13T22:30:19.744Z,12.06
2023-04-13T22:34:20.534Z,12.02
2023-04-13T22:38:23.894Z,11.93
2023-04-13T22:42:24.500Z,12.01
2023-04-13T22:46:25.044Z,11.97
2023-04-13T22:50:25.561Z,11.90
2023-04-13T22:54:28.582Z,11.78
2023-04-13T22:58:29.170Z,11.72
2023-04-13T23:02:29.998Z,11.83
2023-04-13T23:06:31.258Z,11.86
2023-04-13T23:10:35.389Z,11.88
2023-04-13T23:14:36.120Z,11.83
2023-04-13T23:18:38.060Z,11.75
2023-04-13T23:22:38.637Z,11.67
2023-04-13T23:26:42.368Z,11.62
2023-04-13T23:30:43.695Z,11.67
2023-04-13T23:34:44.135Z,11.56
2023-04-13T23:38:44.900Z,11.45
2023-04-13T23:42:48.136Z,11.42
2023-04-13T23:46:48.738Z,11.40
2023-04-13T23:50:49.181Z,11.31
2023-04-13T23:54:50.160Z,11.18
2023-04-13T23:58:53.623Z,11.11
